sensor_id;sensor_type;location;lat;lon;timestamp;pressure;altitude;pressure_sealevel;temperature;humidity
59055;BME280;44845;51.444;7.460;2023-02-11T00:00:06;101519.16;;;6.01;74.32
59055;BME280;44845;51.444;7.460;2023-02-11T00:02:32;101515.59;;;5.99;74.38
59055;BME280;44845;51.444;7.460;2023-02-11T00:04:58;101512.28;;;6.03;74.45
59055;BME280;44845;51.444;7.460;2023-02-11T00:07:27;101513.81;;;5.97;74.32
59055;BME280;44845;51.444;7.460;2023-02-11T00:09:53;101509.81;;;6.06;74.06
59055;BME280;44845;51.444;7.460;2023-02-11T00:12:18;101510.63;;;6.05;74.43
59055;BME280;44845;51.444;7.460;2023-02-11T00:14:44;101495.00;;;6.05;73.97
59055;BME280;44845;51.444;7.460;2023-02-11T00:17:09;101497.59;;;6.05;73.88
59055;BME280;44845;51.444;7.460;2023-02-11T00:19:34;101486.97;;;5.99;74.16
59055;BME280;44845;51.444;7.460;2023-02-11T00:22:00;101491.34;;;6.00;74.19
59055;BME280;44845;51.444;7.460;2023-02-11T00:24:25;101488.75;;;6.00;74.14
59055;BME280;44845;51.444;7.460;2023-02-11T00:26:50;101485.28;;;6.01;74.02
59055;BME280;44845;51.444;7.460;2023-02-11T00:29:16;101471.28;;;5.97;73.93
59055;BME280;44845;51.444;7.460;2023-02-11T00:31:41;101465.19;;;5.96;74.17
59055;BME280;44845;51.444;7.460;2023-02-11T00:34:07;101472.75;;;5.90;74.46
59055;BME280;44845;51.444;7.460;2023-02-11T00:36:32;101480.16;;;5.79;74.74
59055;BME280;44845;51.444;7.460;2023-02-11T00:38:58;101474.38;;;5.86;74.79
59055;BME280;44845;51.444;7.460;2023-02-11T00:41:24;101478.81;;;5.89;74.56
59055;BME280;44845;51.444;7.460;2023-02-11T00:43:50;101479.03;;;5.95;74.39
59055;BME280;44845;51.444;7.460;2023-02-11T00:46:16;101480.94;;;6.00;74.42
59055;BME280;44845;51.444;7.460;2023-02-11T00:48:42;101489.44;;;5.95;74.40
59055;BME280;44845;51.444;7.460;2023-02-11T00:51:07;101486.16;;;6.00;74.44
59055;BME280;44845;51.444;7.460;2023-02-11T00:53:33;101479.16;;;5.99;74.48
59055;BME280;44845;51.444;7.460;2023-02-11T00:55:59;101480.94;;;6.00;74.47
59055;BME280;44845;51.444;7.460;2023-02-11T00:58:25;101473.34;;;6.06;74.42
59055;BME280;44845;51.444;7.460;2023-02-11T01:00:52;101468.28;;;6.09;74.19
59055;BME280;44845;51.444;7.460;2023-02-11T01:03:17;101462.88;;;6.04;74.04
59055;BME280;44845;51.444;7.460;2023-02-11T01:05:43;101463.88;;;6.08;74.33
59055;BME280;44845;51.444;7.460;2023-02-11T01:08:08;101453.22;;;6.02;74.29
59055;BME280;44845;51.444;7.460;2023-02-11T01:10:34;101465.34;;;6.01;74.54
59055;BME280;44845;51.444;7.460;2023-02-11T01:12:59;101467.19;;;6.04;74.43
59055;BME280;44845;51.444;7.460;2023-02-11T01:15:25;101460.56;;;6.12;74.26
59055;BME280;44845;51.444;7.460;2023-02-11T01:17:51;101465.75;;;6.12;74.21
59055;BME280;44845;51.444;7.460;2023-02-11T01:20:22;101466.50;;;6.08;74.48
59055;BME280;44845;51.444;7.460;2023-02-11T01:22:49;101479.84;;;6.17;74.21
59055;BME280;44845;51.444;7.460;2023-02-11T01:25:14;101479.63;;;6.11;74.19
59055;BME280;44845;51.444;7.460;2023-02-11T01:27:40;101483.31;;;6.16;74.15
59055;BME280;44845;51.444;7.460;2023-02-11T01:30:08;101474.75;;;6.21;74.01
59055;BME280;44845;51.444;7.460;2023-02-11T01:32:34;101478.19;;;6.19;74.10
59055;BME280;44845;51.444;7.460;2023-02-11T01:35:00;101476.47;;;6.20;74.04
59055;BME280;44845;51.444;7.460;2023-02-11T01:37:26;101479.19;;;6.23;73.81
59055;BME280;44845;51.444;7.460;2023-02-11T01:39:51;101485.06;;;6.17;74.06
59055;BME280;44845;51.444;7.460;2023-02-11T01:42:19;101488.72;;;6.23;74.06
59055;BME280;44845;51.444;7.460;2023-02-11T01:44:47;101492.19;;;6.22;74.08
59055;BME280;44845;51.444;7.460;2023-02-11T01:47:13;101486.19;;;6.24;74.08
59055;BME280;44845;51.444;7.460;2023-02-11T01:49:41;101485.38;;;6.27;73.93
59055;BME280;44845;51.444;7.460;2023-02-11T01:54:58;101477.53;;;6.25;73.78
59055;BME280;44845;51.444;7.460;2023-02-11T01:57:46;101464.47;;;6.24;74.08
59055;BME280;44845;51.444;7.460;2023-02-11T02:00:23;101458.47;;;6.26;74.15
59055;BME280;44845;51.444;7.460;2023-02-11T02:02:51;101450.38;;;6.18;74.48
59055;BME280;44845;51.444;7.460;2023-02-11T02:08:18;101450.69;;;6.28;74.83
59055;BME280;44845;51.444;7.460;2023-02-11T02:10:49;101464.34;;;6.21;75.23
59055;BME280;44845;51.444;7.460;2023-02-11T02:13:18;101462.75;;;6.24;75.21
59055;BME280;44845;51.444;7.460;2023-02-11T02:15:52;101455.78;;;6.25;75.60
59055;BME280;44845;51.444;7.460;2023-02-11T02:32:47;101417.31;;;6.17;76.00
59055;BME280;44845;51.444;7.460;2023-02-11T02:35:28;101422.31;;;6.11;76.09
59055;BME280;44845;51.444;7.460;2023-02-11T02:38:11;101410.81;;;6.06;76.18
59055;BME280;44845;51.444;7.460;2023-02-11T02:41:00;101407.69;;;6.15;75.98
59055;BME280;44845;51.444;7.460;2023-02-11T02:43:28;101407.63;;;6.13;75.73
59055;BME280;44845;51.444;7.460;2023-02-11T02:45:54;101408.38;;;6.09;75.94
59055;BME280;44845;51.444;7.460;2023-02-11T02:48:29;101425.13;;;6.17;75.57
59055;BME280;44845;51.444;7.460;2023-02-11T02:56:56;101417.56;;;6.24;75.43
59055;BME280;44845;51.444;7.460;2023-02-11T03:02:34;101406.09;;;6.18;75.42
59055;BME280;44845;51.444;7.460;2023-02-11T03:05:17;101420.97;;;6.23;75.47
59055;BME280;44845;51.444;7.460;2023-02-11T03:07:55;101419.22;;;6.22;75.70
59055;BME280;44845;51.444;7.460;2023-02-11T03:10:29;101408.69;;;6.18;75.47
59055;BME280;44845;51.444;7.460;2023-02-11T03:12:56;101406.91;;;6.17;75.74
59055;BME280;44845;51.444;7.460;2023-02-11T03:15:23;101407.03;;;6.21;75.57
59055;BME280;44845;51.444;7.460;2023-02-11T03:17:51;101413.66;;;6.12;75.84
59055;BME280;44845;51.444;7.460;2023-02-11T03:20:21;101417.25;;;6.14;75.76
59055;BME280;44845;51.444;7.460;2023-02-11T03:25:14;101419.94;;;6.17;75.73
59055;BME280;44845;51.444;7.460;2023-02-11T03:27:45;101420.88;;;6.19;75.62
59055;BME280;44845;51.444;7.460;2023-02-11T03:30:21;101418.06;;;6.13;75.65
59055;BME280;44845;51.444;7.460;2023-02-11T03:33:04;101428.59;;;6.16;75.77
59055;BME280;44845;51.444;7.460;2023-02-11T03:35:40;101414.72;;;6.17;75.86
59055;BME280;44845;51.444;7.460;2023-02-11T03:38:19;101418.34;;;6.21;75.59
59055;BME280;44845;51.444;7.460;2023-02-11T03:40:46;101419.22;;;6.22;75.69
59055;BME280;44845;51.444;7.460;2023-02-11T03:43:21;101427.81;;;6.19;75.52
59055;BME280;44845;51.444;7.460;2023-02-11T03:45:50;101420.09;;;6.22;75.38
59055;BME280;44845;51.444;7.460;2023-02-11T03:48:26;101415.78;;;6.23;75.23
59055;BME280;44845;51.444;7.460;2023-02-11T03:50:54;101418.34;;;6.21;75.28
59055;BME280;44845;51.444;7.460;2023-02-11T03:53:22;101415.84;;;6.24;75.35
59055;BME280;44845;51.444;7.460;2023-02-11T03:55:49;101405.34;;;6.23;75.14
59055;BME280;44845;51.444;7.460;2023-02-11T03:58:15;101406.97;;;6.19;75.45
59055;BME280;44845;51.444;7.460;2023-02-11T04:00:43;101404.41;;;6.21;75.38
59055;BME280;44845;51.444;7.460;2023-02-11T04:03:10;101417.47;;;6.22;75.41
59055;BME280;44845;51.444;7.460;2023-02-11T04:05:37;101408.69;;;6.18;75.53
59055;BME280;44845;51.444;7.460;2023-02-11T04:08:02;101414.06;;;6.23;75.88
59055;BME280;44845;51.444;7.460;2023-02-11T04:10:28;101410.25;;;6.13;76.55
59055;BME280;44845;51.444;7.460;2023-02-11T04:12:53;101418.78;;;6.09;76.82
59055;BME280;44845;51.444;7.460;2023-02-11T04:15:19;101408.53;;;6.14;76.82
59055;BME280;44845;51.444;7.460;2023-02-11T04:17:44;101405.16;;;6.16;76.87
59055;BME280;44845;51.444;7.460;2023-02-11T04:20:10;101399.94;;;6.16;76.90
59055;BME280;44845;51.444;7.460;2023-02-11T04:22:36;101398.03;;;6.12;77.13
59055;BME280;44845;51.444;7.460;2023-02-11T04:25:02;101395.38;;;6.11;77.31
59055;BME280;44845;51.444;7.460;2023-02-11T04:27:28;101398.03;;;6.12;77.54
59055;BME280;44845;51.444;7.460;2023-02-11T04:29:54;101400.56;;;6.09;77.65
59055;BME280;44845;51.444;7.460;2023-02-11T04:32:19;101401.50;;;6.11;77.72
59055;BME280;44845;51.444;7.460;2023-02-11T04:34:45;101408.44;;;6.12;77.77
59055;BME280;44845;51.444;7.460;2023-02-11T04:37:10;101417.13;;;6.11;77.77
59055;BME280;44845;51.444;7.460;2023-02-11T04:39:35;101425.75;;;6.10;78.12
59055;BME280;44845;51.444;7.460;2023-02-11T04:42:01;101429.06;;;6.06;78.53
59055;BME280;44845;51.444;7.460;2023-02-11T04:44:26;101434.41;;;6.09;78.16
59055;BME280;44845;51.444;7.460;2023-02-11T04:46:52;101437.84;;;6.08;78.38
59055;BME280;44845;51.444;7.460;2023-02-11T04:49:17;101427.41;;;6.08;78.41
59055;BME280;44845;51.444;7.460;2023-02-11T04:51:43;101424.75;;;6.06;78.63
59055;BME280;44845;51.444;7.460;2023-02-11T04:54:12;101418.63;;;6.06;78.52
59055;BME280;44845;51.444;7.460;2023-02-11T04:56:37;101414.41;;;6.08;78.50
59055;BME280;44845;51.444;7.460;2023-02-11T04:59:03;101413.44;;;6.06;78.53
59055;BME280;44845;51.444;7.460;2023-02-11T05:01:29;101407.47;;;6.08;78.41
59055;BME280;44845;51.444;7.460;2023-02-11T05:03:55;101420.44;;;6.07;78.69
59055;BME280;44845;51.444;7.460;2023-02-11T05:06:20;101424.50;;;6.00;78.91
59055;BME280;44845;51.444;7.460;2023-02-11T05:08:46;101416.84;;;6.05;78.85
59055;BME280;44845;51.444;7.460;2023-02-11T05:11:16;101404.59;;;6.02;78.91
59055;BME280;44845;51.444;7.460;2023-02-11T05:13:42;101401.13;;;6.02;78.90
59055;BME280;44845;51.444;7.460;2023-02-11T05:16:07;101414.84;;;5.97;79.29
59055;BME280;44845;51.444;7.460;2023-02-11T05:18:35;101404.56;;;6.01;79.09
59055;BME280;44845;51.444;7.460;2023-02-11T05:21:05;101410.53;;;5.98;79.32
59055;BME280;44845;51.444;7.460;2023-02-11T05:23:30;101414.03;;;5.99;79.20
59055;BME280;44845;51.444;7.460;2023-02-11T05:25:56;101412.41;;;6.02;79.16
59055;BME280;44845;51.444;7.460;2023-02-11T05:28:21;101410.69;;;6.03;78.99
59055;BME280;44845;51.444;7.460;2023-02-11T05:30:46;101406.34;;;6.02;79.10
59055;BME280;44845;51.444;7.460;2023-02-11T05:33:12;101407.13;;;5.99;79.38
59055;BME280;44845;51.444;7.460;2023-02-11T05:35:37;101404.56;;;6.01;79.17
59055;BME280;44845;51.444;7.460;2023-02-11T05:38:03;101405.31;;;5.98;79.22
59055;BME280;44845;51.444;7.460;2023-02-11T05:40:28;101404.22;;;5.91;79.64
59055;BME280;44845;51.444;7.460;2023-02-11T05:42:53;101412.25;;;5.97;79.40
59055;BME280;44845;51.444;7.460;2023-02-11T05:45:19;101414.75;;;5.94;79.58
59055;BME280;44845;51.444;7.460;2023-02-11T05:47:44;101401.91;;;5.99;79.35
59055;BME280;44845;51.444;7.460;2023-02-11T05:50:09;101404.56;;;6.01;79.16
59055;BME280;44845;51.444;7.460;2023-02-11T05:52:35;101403.28;;;5.89;79.76
59055;BME280;44845;51.444;7.460;2023-02-11T05:55:00;101402.69;;;5.96;79.32
59055;BME280;44845;51.444;7.460;2023-02-11T05:57:25;101404.56;;;6.01;79.40
59055;BME280;44845;51.444;7.460;2023-02-11T05:59:51;101407.03;;;5.97;79.28
59055;BME280;44845;51.444;7.460;2023-02-11T06:02:18;101409.66;;;5.97;79.47
59055;BME280;44845;51.444;7.460;2023-02-11T06:04:44;101414.84;;;5.97;79.35
59055;BME280;44845;51.444;7.460;2023-02-11T06:07:09;101417.56;;;6.01;79.40
59055;BME280;44845;51.444;7.460;2023-02-11T06:09:37;101421.13;;;6.03;79.21
59055;BME280;44845;51.444;7.460;2023-02-11T06:12:03;101411.78;;;6.08;79.14
59055;BME280;44845;51.444;7.460;2023-02-11T06:14:28;101408.09;;;6.03;79.65
59055;BME280;44845;51.444;7.460;2023-02-11T06:16:53;101406.44;;;6.05;79.20
59055;BME280;44845;51.444;7.460;2023-02-11T06:19:19;101407.88;;;5.96;79.23
59055;BME280;44845;51.444;7.460;2023-02-11T06:21:44;101412.41;;;6.02;79.12
59055;BME280;44845;51.444;7.460;2023-02-11T06:24:10;101408.22;;;6.06;78.98
59055;BME280;44845;51.444;7.460;2023-02-11T06:26:36;101411.56;;;6.02;79.53
59055;BME280;44845;51.444;7.460;2023-02-11T06:29:01;101412.50;;;6.04;79.37
59055;BME280;44845;51.444;7.460;2023-02-11T06:31:27;101409.75;;;6.01;79.34
59055;BME280;44845;51.444;7.460;2023-02-11T06:33:52;101406.50;;;6.06;79.16
59055;BME280;44845;51.444;7.460;2023-02-11T06:36:20;101414.44;;;6.10;79.13
59055;BME280;44845;51.444;7.460;2023-02-11T06:38:46;101417.13;;;6.11;78.98
59055;BME280;44845;51.444;7.460;2023-02-11T06:41:14;101415.28;;;6.08;79.14
59055;BME280;44845;51.444;7.460;2023-02-11T06:43:40;101412.69;;;6.08;79.09
59055;BME280;44845;51.444;7.460;2023-02-11T06:46:06;101411.00;;;6.11;79.22
59055;BME280;44845;51.444;7.460;2023-02-11T06:48:32;101399.47;;;6.04;79.35
59055;BME280;44845;51.444;7.460;2023-02-11T06:51:05;101403.16;;;6.09;79.18
59055;BME280;44845;51.444;7.460;2023-02-11T06:53:34;101413.38;;;6.04;79.05
59055;BME280;44845;51.444;7.460;2023-02-11T06:56:04;101422.22;;;6.08;79.21
59055;BME280;44845;51.444;7.460;2023-02-11T06:58:30;101423.72;;;6.03;79.43
59055;BME280;44845;51.444;7.460;2023-02-11T07:00:56;101424.00;;;6.09;79.38
59055;BME280;44845;51.444;7.460;2023-02-11T07:03:21;101428.53;;;6.15;79.06
59055;BME280;44845;51.444;7.460;2023-02-11T07:05:46;101421.56;;;6.14;78.99
59055;BME280;44845;51.444;7.460;2023-02-11T07:08:12;101425.75;;;6.10;79.22
59055;BME280;44845;51.444;7.460;2023-02-11T07:10:37;101418.88;;;6.12;79.10
59055;BME280;44845;51.444;7.460;2023-02-11T07:13:04;101408.56;;;6.15;79.30
59055;BME280;44845;51.444;7.460;2023-02-11T07:15:29;101420.44;;;6.07;79.49
59055;BME280;44845;51.444;7.460;2023-02-11T07:17:54;101422.44;;;6.14;79.37
59055;BME280;44845;51.444;7.460;2023-02-11T07:20:20;101424.31;;;6.18;79.41
59055;BME280;44845;51.444;7.460;2023-02-11T07:22:45;101423.44;;;6.18;79.19
59055;BME280;44845;51.444;7.460;2023-02-11T07:25:10;101412.06;;;6.16;79.25
59055;BME280;44845;51.444;7.460;2023-02-11T07:27:36;101421.72;;;6.18;79.29
59055;BME280;44845;51.444;7.460;2023-02-11T07:30:04;101429.53;;;6.18;79.10
59055;BME280;44845;51.444;7.460;2023-02-11T07:32:29;101432.19;;;6.20;79.30
59055;BME280;44845;51.444;7.460;2023-02-11T07:34:55;101433.06;;;6.21;79.23
59055;BME280;44845;51.444;7.460;2023-02-11T07:37:20;101450.50;;;6.22;79.31
59055;BME280;44845;51.444;7.460;2023-02-11T07:39:45;101450.53;;;6.23;79.32
59055;BME280;44845;51.444;7.460;2023-02-11T07:42:11;101443.50;;;6.21;79.40
59055;BME280;44845;51.444;7.460;2023-02-11T07:44:36;101441.81;;;6.23;79.28
59055;BME280;44845;51.444;7.460;2023-02-11T07:47:02;101431.47;;;6.24;79.16
59055;BME280;44845;51.444;7.460;2023-02-11T07:49:27;101438.41;;;6.24;79.43
59055;BME280;44845;51.444;7.460;2023-02-11T07:51:53;101443.63;;;6.24;79.43
59055;BME280;44845;51.444;7.460;2023-02-11T07:54:18;101436.72;;;6.26;79.39
59055;BME280;44845;51.444;7.460;2023-02-11T07:56:44;101438.50;;;6.27;79.73
59055;BME280;44845;51.444;7.460;2023-02-11T07:59:10;101439.34;;;6.26;79.47
59055;BME280;44845;51.444;7.460;2023-02-11T08:01:35;101441.94;;;6.26;79.47
59055;BME280;44845;51.444;7.460;2023-02-11T08:04:02;101445.59;;;6.31;79.46
59055;BME280;44845;51.444;7.460;2023-02-11T08:06:32;101445.38;;;6.25;79.55
59055;BME280;44845;51.444;7.460;2023-02-11T08:09:05;101450.75;;;6.29;79.77
59055;BME280;44845;51.444;7.460;2023-02-11T08:11:31;101448.81;;;6.24;79.88
59055;BME280;44845;51.444;7.460;2023-02-11T08:13:57;101454.34;;;6.33;79.53
59055;BME280;44845;51.444;7.460;2023-02-11T08:16:25;101450.81;;;6.31;79.54
59055;BME280;44845;51.444;7.460;2023-02-11T08:18:52;101456.13;;;6.34;79.60
59055;BME280;44845;51.444;7.460;2023-02-11T08:21:18;101456.03;;;6.31;79.76
59055;BME280;44845;51.444;7.460;2023-02-11T08:23:45;101468.22;;;6.32;79.79
59055;BME280;44845;51.444;7.460;2023-02-11T08:26:14;101455.28;;;6.35;79.58
59055;BME280;44845;51.444;7.460;2023-02-11T08:28:42;101469.16;;;6.34;79.75
59055;BME280;44845;51.444;7.460;2023-02-11T08:31:10;101475.31;;;6.36;79.69
59055;BME280;44845;51.444;7.460;2023-02-11T08:33:35;101473.66;;;6.38;79.64
59055;BME280;44845;51.444;7.460;2023-02-11T08:36:07;101478.88;;;6.38;79.62
59055;BME280;44845;51.444;7.460;2023-02-11T08:38:33;101484.09;;;6.38;79.82
59055;BME280;44845;51.444;7.460;2023-02-11T08:40:59;101484.09;;;6.38;79.85
59055;BME280;44845;51.444;7.460;2023-02-11T08:43:24;101485.94;;;6.42;79.84
59055;BME280;44845;51.444;7.460;2023-02-11T08:45:50;101487.63;;;6.40;79.87
59055;BME280;44845;51.444;7.460;2023-02-11T08:48:15;101489.63;;;6.48;79.71
59055;BME280;44845;51.444;7.460;2023-02-11T08:50:41;101488.72;;;6.47;79.36
59055;BME280;44845;51.444;7.460;2023-02-11T08:53:06;101496.50;;;6.46;79.99
59055;BME280;44845;51.444;7.460;2023-02-11T08:55:32;101487.94;;;6.50;79.67
59055;BME280;44845;51.444;7.460;2023-02-11T08:57:57;101492.25;;;6.49;79.82
59055;BME280;44845;51.444;7.460;2023-02-11T09:00:23;101488.88;;;6.52;79.68
59055;BME280;44845;51.444;7.460;2023-02-11T09:02:48;101492.34;;;6.51;79.84
59055;BME280;44845;51.444;7.460;2023-02-11T09:05:13;101496.69;;;6.52;79.95
59055;BME280;44845;51.444;7.460;2023-02-11T09:07:39;101503.91;;;6.59;79.67
59055;BME280;44845;51.444;7.460;2023-02-11T09:10:04;101511.81;;;6.61;79.56
59055;BME280;44845;51.444;7.460;2023-02-11T09:12:30;101510.91;;;6.60;79.74
59055;BME280;44845;51.444;7.460;2023-02-11T09:14:56;101514.44;;;6.62;79.57
59055;BME280;44845;51.444;7.460;2023-02-11T09:17:21;101520.56;;;6.63;79.72
59055;BME280;44845;51.444;7.460;2023-02-11T09:19:46;101512.81;;;6.66;79.70
59055;BME280;44845;51.444;7.460;2023-02-11T09:22:12;101521.53;;;6.67;79.71
59055;BME280;44845;51.444;7.460;2023-02-11T09:24:37;101516.44;;;6.70;79.84
59055;BME280;44845;51.444;7.460;2023-02-11T09:27:02;101517.34;;;6.70;79.71
59055;BME280;44845;51.444;7.460;2023-02-11T09:29:30;101509.50;;;6.70;79.78
59055;BME280;44845;51.444;7.460;2023-02-11T09:31:55;101513.06;;;6.72;79.87
59055;BME280;44845;51.444;7.460;2023-02-11T09:34:21;101515.72;;;6.74;79.92
59055;BME280;44845;51.444;7.460;2023-02-11T09:36:46;101519.38;;;6.79;79.78
59055;BME280;44845;51.444;7.460;2023-02-11T09:39:14;101527.25;;;6.81;79.70
59055;BME280;44845;51.444;7.460;2023-02-11T09:44:26;101532.72;;;6.89;79.61
59055;BME280;44845;51.444;7.460;2023-02-11T09:46:59;101538.03;;;6.92;79.61
59055;BME280;44845;51.444;7.460;2023-02-11T09:49:44;101534.63;;;6.93;79.48
59055;BME280;44845;51.444;7.460;2023-02-11T09:52:29;101538.03;;;6.92;79.56
59055;BME280;44845;51.444;7.460;2023-02-11T09:55:02;101543.88;;;6.84;79.66
59055;BME280;44845;51.444;7.460;2023-02-11T09:57:35;101531.91;;;6.90;79.63
59055;BME280;44845;51.444;7.460;2023-02-11T10:00:14;101547.59;;;6.91;79.54
59055;BME280;44845;51.444;7.460;2023-02-11T10:03:03;101542.38;;;6.91;79.63
59055;BME280;44845;51.444;7.460;2023-02-11T10:09:10;101551.09;;;6.92;79.64
59055;BME280;44845;51.444;7.460;2023-02-11T10:11:19;101543.38;;;6.95;79.55
59055;BME280;44845;51.444;7.460;2023-02-11T10:15:01;101550.34;;;6.96;79.66
59055;BME280;44845;51.444;7.460;2023-02-11T10:17:01;101543.38;;;6.95;79.49
59055;BME280;44845;51.444;7.460;2023-02-11T10:24:36;101561.78;;;7.00;79.44
59055;BME280;44845;51.444;7.460;2023-02-11T10:27:15;101561.91;;;7.03;79.55
59055;BME280;44845;51.444;7.460;2023-02-11T10:29:47;101563.56;;;7.01;79.54
59055;BME280;44845;51.444;7.460;2023-02-11T10:32:31;101568.06;;;7.05;79.38
59055;BME280;44845;51.444;7.460;2023-02-11T10:35:02;101564.41;;;7.00;79.55
59055;BME280;44845;51.444;7.460;2023-02-11T10:37:34;101566.28;;;7.04;79.36
59055;BME280;44845;51.444;7.460;2023-02-11T10:39:59;101564.59;;;7.06;79.17
59055;BME280;44845;51.444;7.460;2023-02-11T10:42:25;101564.69;;;7.07;79.24
59055;BME280;44845;51.444;7.460;2023-02-11T10:45:03;101566.53;;;7.12;79.29
59055;BME280;44845;51.444;7.460;2023-02-11T10:47:34;101578.53;;;7.06;79.54
59055;BME280;44845;51.444;7.460;2023-02-11T10:50:19;101576.03;;;7.09;79.47
59055;BME280;44845;51.444;7.460;2023-02-11T10:52:44;101579.47;;;7.08;79.46
59055;BME280;44845;51.444;7.460;2023-02-11T10:55:22;101573.63;;;7.16;79.45
59055;BME280;44845;51.444;7.460;2023-02-11T10:57:55;101579.78;;;7.18;79.35
59055;BME280;44845;51.444;7.460;2023-02-11T11:00:28;101573.63;;;7.16;79.58
59055;BME280;44845;51.444;7.460;2023-02-11T11:02:57;101572.84;;;7.18;79.71
59055;BME280;44845;51.444;7.460;2023-02-11T11:05:32;101580.63;;;7.17;79.37
59055;BME280;44845;51.444;7.460;2023-02-11T11:08:01;101576.25;;;7.16;79.49
59055;BME280;44845;51.444;7.460;2023-02-11T11:10:35;101579.91;;;7.21;79.50
59055;BME280;44845;51.444;7.460;2023-02-11T11:13:01;101574.72;;;7.23;79.45
59055;BME280;44845;51.444;7.460;2023-02-11T11:15:30;101576.25;;;7.16;79.86
59055;BME280;44845;51.444;7.460;2023-02-11T11:18:13;101577.28;;;7.21;79.78
59055;BME280;44845;51.444;7.460;2023-02-11T11:20:58;101580.94;;;7.26;79.56
59055;BME280;44845;51.444;7.460;2023-02-11T11:23:24;101578.44;;;7.29;79.54
59055;BME280;44845;51.444;7.460;2023-02-11T11:26:04;101581.13;;;7.32;79.53
59055;BME280;44845;51.444;7.460;2023-02-11T11:28:35;101583.75;;;7.32;79.49
59055;BME280;44845;51.444;7.460;2023-02-11T11:31:04;101581.06;;;7.29;79.46
59055;BME280;44845;51.444;7.460;2023-02-11T11:33:32;101587.25;;;7.33;79.56
59055;BME280;44845;51.444;7.460;2023-02-11T11:38:27;101589.25;;;7.14;80.12
59055;BME280;44845;51.444;7.460;2023-02-11T11:41:23;101588.81;;;7.28;79.67
59055;BME280;44845;51.444;7.460;2023-02-11T11:43:59;101581.13;;;7.32;79.54
59055;BME280;44845;51.444;7.460;2023-02-11T11:46:30;101579.16;;;7.25;79.97
59055;BME280;44845;51.444;7.460;2023-02-11T11:51:31;101581.25;;;7.36;79.66
59055;BME280;44845;51.444;7.460;2023-02-11T11:54:07;101579.66;;;7.39;79.66
59055;BME280;44845;51.444;7.460;2023-02-11T11:56:40;101586.47;;;7.36;79.55
59055;BME280;44845;51.444;7.460;2023-02-11T11:59:10;101582.41;;;7.44;79.35
59055;BME280;44845;51.444;7.460;2023-02-11T12:07:13;101563.38;;;7.48;79.37
59055;BME280;44845;51.444;7.460;2023-02-11T12:12:32;101560.66;;;7.45;79.33
59055;BME280;44845;51.444;7.460;2023-02-11T12:18:27;101557.22;;;7.46;79.33
59055;BME280;44845;51.444;7.460;2023-02-11T12:21:12;101557.34;;;7.49;79.31
59055;BME280;44845;51.444;7.460;2023-02-11T12:23:58;101555.66;;;7.51;79.16
59055;BME280;44845;51.444;7.460;2023-02-11T12:26:37;101552.84;;;7.45;79.34
59055;BME280;44845;51.444;7.460;2023-02-11T12:40:14;101548.94;;;7.60;79.08
59055;BME280;44845;51.444;7.460;2023-02-11T12:48:24;101563.81;;;7.62;78.94
59055;BME280;44845;51.444;7.460;2023-02-11T12:56:53;101555.78;;;7.54;79.30
59055;BME280;44845;51.444;7.460;2023-02-11T13:01:55;101567.19;;;7.58;79.00
59055;BME280;44845;51.444;7.460;2023-02-11T13:04:30;101564.59;;;7.60;78.96
59055;BME280;44845;51.444;7.460;2023-02-11T13:07:00;101564.59;;;7.60;79.08
59055;BME280;44845;51.444;7.460;2023-02-11T13:09:34;101568.19;;;7.62;79.00
59055;BME280;44845;51.444;7.460;2023-02-11T13:12:03;101566.22;;;7.54;79.01
59055;BME280;44845;51.444;7.460;2023-02-11T13:14:51;101564.59;;;7.60;78.91
59055;BME280;44845;51.444;7.460;2023-02-11T13:17:28;101555.84;;;7.58;79.21
59055;BME280;44845;51.444;7.460;2023-02-11T13:20:01;101556.88;;;7.63;79.12
59055;BME280;44845;51.444;7.460;2023-02-11T13:22:34;101549.97;;;7.65;79.05
59055;BME280;44845;51.444;7.460;2023-02-11T13:25:24;101543.94;;;7.66;79.01
59055;BME280;44845;51.444;7.460;2023-02-11T13:28:02;101540.25;;;7.59;79.21
59055;BME280;44845;51.444;7.460;2023-02-11T13:30:35;101547.97;;;7.56;79.42
59055;BME280;44845;51.444;7.460;2023-02-11T13:33:16;101543.00;;;7.64;79.24
59055;BME280;44845;51.444;7.460;2023-02-11T13:35:47;101546.66;;;7.69;78.67
59055;BME280;44845;51.444;7.460;2023-02-11T13:38:22;101541.47;;;7.71;78.90
59055;BME280;44845;51.444;7.460;2023-02-11T13:41:17;101551.91;;;7.71;78.91
59055;BME280;44845;51.444;7.460;2023-02-11T13:44:12;101555.41;;;7.71;79.13
59055;BME280;44845;51.444;7.460;2023-02-11T13:46:52;101559.59;;;7.66;79.12
59055;BME280;44845;51.444;7.460;2023-02-11T13:49:39;101552.69;;;7.68;79.17
59055;BME280;44845;51.444;7.460;2023-02-11T13:52:25;101554.47;;;7.69;79.15
59055;BME280;44845;51.444;7.460;2023-02-11T13:54:53;101552.81;;;7.71;78.98
59055;BME280;44845;51.444;7.460;2023-02-11T13:59:47;101565.09;;;7.75;78.92
59055;BME280;44845;51.444;7.460;2023-02-11T14:05:09;101560.72;;;7.74;78.86
59055;BME280;44845;51.444;7.460;2023-02-11T14:11:05;101566.91;;;7.76;78.84
59055;BME280;44845;51.444;7.460;2023-02-11T14:14:00;101569.53;;;7.78;78.74
59055;BME280;44845;51.444;7.460;2023-02-11T14:16:22;101567.69;;;7.74;79.03
59055;BME280;44845;51.444;7.460;2023-02-11T14:21:21;101565.91;;;7.73;78.98
59055;BME280;44845;51.444;7.460;2023-02-11T14:23:47;101570.44;;;7.79;78.89
59055;BME280;44845;51.444;7.460;2023-02-11T14:31:23;101564.09;;;7.72;78.96
59055;BME280;44845;51.444;7.460;2023-02-11T14:41:55;101566.78;;;7.73;78.90
59055;BME280;44845;51.444;7.460;2023-02-11T14:44:26;101565.22;;;7.79;78.83
59055;BME280;44845;51.444;7.460;2023-02-11T14:46:53;101562.53;;;7.77;78.90
59055;BME280;44845;51.444;7.460;2023-02-11T14:49:28;101555.66;;;7.79;79.06
59055;BME280;44845;51.444;7.460;2023-02-11T14:52:05;101557.56;;;7.85;78.82
59055;BME280;44845;51.444;7.460;2023-02-11T14:54:32;101560.16;;;7.85;78.83
59055;BME280;44845;51.444;7.460;2023-02-11T14:57:12;101556.06;;;7.93;78.42
59055;BME280;44845;51.444;7.460;2023-02-11T14:59:38;101558.69;;;7.93;78.58